sensor_id;sensor_type;location;lat;lon;timestamp;pressure;altitude;pressure_sealevel;temperature;humidity
13934;BME280;7039;52.168;9.866;2023-02-18T00:00:14;100936.25;;;8.06;68.75
13934;BME280;7039;52.168;9.866;2023-02-18T00:02:42;100922.38;;;8.07;68.87
13934;BME280;7039;52.168;9.866;2023-02-18T00:05:08;100923.53;;;8.25;68.28
13934;BME280;7039;52.168;9.866;2023-02-18T00:07:35;100925.53;;;8.16;68.80
13934;BME280;7039;52.168;9.866;2023-02-18T00:10:07;100926.81;;;8.30;68.03
13934;BME280;7039;52.168;9.866;2023-02-18T00:12:34;100919.16;;;8.27;68.36
13934;BME280;7039;52.168;9.866;2023-02-18T00:15:00;100926.03;;;8.28;68.69
13934;BME280;7039;52.168;9.866;2023-02-18T00:17:27;100924.34;;;8.27;68.65
13934;BME280;7039;52.168;9.866;2023-02-18T00:19:54;100924.84;;;8.38;68.30
13934;BME280;7039;52.168;9.866;2023-02-18T00:22:21;100925.72;;;8.37;68.10
13934;BME280;7039;52.168;9.866;2023-02-18T00:24:48;100919.34;;;8.21;68.64
13934;BME280;7039;52.168;9.866;2023-02-18T00:27:16;100930.31;;;8.29;68.18
13934;BME280;7039;52.168;9.866;2023-02-18T00:29:43;100928.66;;;8.26;68.13
13934;BME280;7039;52.168;9.866;2023-02-18T00:32:09;100922.88;;;8.18;68.36
13934;BME280;7039;52.168;9.866;2023-02-18T00:34:36;100919.19;;;8.25;68.30
13934;BME280;7039;52.168;9.866;2023-02-18T00:37:03;100918.53;;;8.19;68.53
13934;BME280;7039;52.168;9.866;2023-02-18T00:39:29;100918.03;;;8.07;69.27
13934;BME280;7039;52.168;9.866;2023-02-18T00:41:56;100928.00;;;8.20;68.73
13934;BME280;7039;52.168;9.866;2023-02-18T00:44:24;100922.25;;;8.11;68.64
13934;BME280;7039;52.168;9.866;2023-02-18T00:46:50;100929.28;;;8.08;68.72
13934;BME280;7039;52.168;9.866;2023-02-18T00:49:17;100929.19;;;8.11;68.67
13934;BME280;7039;52.168;9.866;2023-02-18T00:51:44;100924.22;;;8.30;68.17
13934;BME280;7039;52.168;9.866;2023-02-18T00:54:10;100925.91;;;8.31;68.03
13934;BME280;7039;52.168;9.866;2023-02-18T00:56:37;100924.75;;;8.40;67.81
13934;BME280;7039;52.168;9.866;2023-02-18T00:59:03;100929.31;;;8.33;67.64
13934;BME280;7039;52.168;9.866;2023-02-18T01:01:31;100942.13;;;8.39;67.56
13934;BME280;7039;52.168;9.866;2023-02-18T01:03:59;100936.38;;;8.29;67.94
13934;BME280;7039;52.168;9.866;2023-02-18T01:06:26;100934.28;;;8.14;68.88
13934;BME280;7039;52.168;9.866;2023-02-18T01:08:52;100933.72;;;8.04;69.66
13934;BME280;7039;52.168;9.866;2023-02-18T01:11:19;100928.91;;;7.92;69.90
13934;BME280;7039;52.168;9.866;2023-02-18T01:13:46;100927.38;;;7.86;70.07
13934;BME280;7039;52.168;9.866;2023-02-18T01:16:12;100943.91;;;7.84;70.39
13934;BME280;7039;52.168;9.866;2023-02-18T01:18:40;100941.44;;;7.79;70.56
13934;BME280;7039;52.168;9.866;2023-02-18T01:21:08;100937.91;;;7.82;70.73
13934;BME280;7039;52.168;9.866;2023-02-18T01:23:35;100927.34;;;7.58;72.10
13934;BME280;7039;52.168;9.866;2023-02-18T01:26:02;100933.72;;;7.76;72.14
13934;BME280;7039;52.168;9.866;2023-02-18T01:28:28;100944.84;;;7.81;72.07
13934;BME280;7039;52.168;9.866;2023-02-18T01:30:55;100944.41;;;7.95;72.19
13934;BME280;7039;52.168;9.866;2023-02-18T01:33:22;100938.28;;;7.98;72.01
13934;BME280;7039;52.168;9.866;2023-02-18T01:35:51;100932.97;;;8.01;72.16
13934;BME280;7039;52.168;9.866;2023-02-18T01:38:18;100932.16;;;7.99;72.24
13934;BME280;7039;52.168;9.866;2023-02-18T01:40:47;100940.44;;;8.11;72.32
13934;BME280;7039;52.168;9.866;2023-02-18T01:43:16;100937.91;;;8.08;72.61
13934;BME280;7039;52.168;9.866;2023-02-18T01:45:55;100933.97;;;8.23;72.36
13934;BME280;7039;52.168;9.866;2023-02-18T01:48:24;100933.13;;;8.23;72.84
13934;BME280;7039;52.168;9.866;2023-02-18T01:50:56;100921.59;;;8.05;73.50
13934;BME280;7039;52.168;9.866;2023-02-18T01:53:27;100920.06;;;8.24;73.84
13934;BME280;7039;52.168;9.866;2023-02-18T01:55:57;100923.13;;;8.37;73.60
13934;BME280;7039;52.168;9.866;2023-02-18T01:58:24;100927.19;;;8.46;73.49
13934;BME280;7039;52.168;9.866;2023-02-18T02:00:51;100922.00;;;8.46;73.33
13934;BME280;7039;52.168;9.866;2023-02-18T02:03:17;100929.69;;;8.49;73.41
13934;BME280;7039;52.168;9.866;2023-02-18T02:05:44;100917.63;;;8.46;73.79
13934;BME280;7039;52.168;9.866;2023-02-18T02:08:12;100921.31;;;8.66;73.50
13934;BME280;7039;52.168;9.866;2023-02-18T02:10:48;100913.19;;;8.50;74.11
13934;BME280;7039;52.168;9.866;2023-02-18T02:13:28;100911.41;;;8.52;74.54
13934;BME280;7039;52.168;9.866;2023-02-18T02:16:01;100904.75;;;8.43;74.53
13934;BME280;7039;52.168;9.866;2023-02-18T02:18:42;100900.19;;;8.50;74.80
13934;BME280;7039;52.168;9.866;2023-02-18T02:21:42;100896.53;;;8.55;75.22
13934;BME280;7039;52.168;9.866;2023-02-18T02:24:36;100882.56;;;8.58;74.77
13934;BME280;7039;52.168;9.866;2023-02-18T02:27:22;100878.88;;;8.39;75.99
13934;BME280;7039;52.168;9.866;2023-02-18T02:36:20;100893.09;;;8.78;75.98
13934;BME280;7039;52.168;9.866;2023-02-18T02:38:54;100892.00;;;8.86;76.23
13934;BME280;7039;52.168;9.866;2023-02-18T02:41:32;100879.22;;;8.80;76.57
13934;BME280;7039;52.168;9.866;2023-02-18T02:44:12;100878.88;;;8.89;76.53
13934;BME280;7039;52.168;9.866;2023-02-18T02:46:45;100874.09;;;9.02;76.27
13934;BME280;7039;52.168;9.866;2023-02-18T02:49:21;100872.19;;;9.05;76.08
13934;BME280;7039;52.168;9.866;2023-02-18T02:51:57;100877.22;;;9.10;76.78
13934;BME280;7039;52.168;9.866;2023-02-18T02:54:26;100874.31;;;8.95;77.25
13934;BME280;7039;52.168;9.866;2023-02-18T02:57:04;100864.88;;;8.93;77.90
13934;BME280;7039;52.168;9.866;2023-02-18T02:59:32;100873.97;;;9.05;77.81
13934;BME280;7039;52.168;9.866;2023-02-18T03:02:11;100852.84;;;9.12;77.89
13934;BME280;7039;52.168;9.866;2023-02-18T03:04:57;100854.81;;;9.06;78.26
13934;BME280;7039;52.168;9.866;2023-02-18T03:07:53;100865.06;;;9.10;78.88
13934;BME280;7039;52.168;9.866;2023-02-18T03:10:34;100858.97;;;9.11;78.54
13934;BME280;7039;52.168;9.866;2023-02-18T03:13:09;100852.06;;;9.10;78.29
13934;BME280;7039;52.168;9.866;2023-02-18T03:15:48;100845.66;;;9.19;78.25
13934;BME280;7039;52.168;9.866;2023-02-18T03:18:20;100847.81;;;9.31;77.96
13934;BME280;7039;52.168;9.866;2023-02-18T03:20:52;100844.59;;;9.25;77.96
13934;BME280;7039;52.168;9.866;2023-02-18T03:23:26;100844.63;;;9.23;78.11
13934;BME280;7039;52.168;9.866;2023-02-18T03:25:55;100832.28;;;9.06;78.09
13934;BME280;7039;52.168;9.866;2023-02-18T03:28:25;100841.28;;;9.19;78.15
13934;BME280;7039;52.168;9.866;2023-02-18T03:30:59;100828.09;;;9.24;77.69
13934;BME280;7039;52.168;9.866;2023-02-18T03:33:30;100837.03;;;9.40;77.30
13934;BME280;7039;52.168;9.866;2023-02-18T03:35:58;100822.19;;;9.43;77.12
13934;BME280;7039;52.168;9.866;2023-02-18T03:38:29;100808.69;;;9.55;76.98
13934;BME280;7039;52.168;9.866;2023-02-18T03:40:59;100798.72;;;9.65;76.65
13934;BME280;7039;52.168;9.866;2023-02-18T03:43:26;100779.94;;;9.36;78.11
13934;BME280;7039;52.168;9.866;2023-02-18T03:45:52;100780.13;;;9.31;78.99
13934;BME280;7039;52.168;9.866;2023-02-18T03:48:19;100775.47;;;9.17;80.50
13934;BME280;7039;52.168;9.866;2023-02-18T03:50:46;100765.06;;;9.17;81.58
13934;BME280;7039;52.168;9.866;2023-02-18T03:53:13;100773.88;;;9.13;82.06
13934;BME280;7039;52.168;9.866;2023-02-18T03:55:42;100779.69;;;9.20;82.48
13934;BME280;7039;52.168;9.866;2023-02-18T03:58:09;100782.13;;;9.25;82.49
13934;BME280;7039;52.168;9.866;2023-02-18T04:00:36;100782.47;;;9.15;83.66
13934;BME280;7039;52.168;9.866;2023-02-18T04:03:03;100787.88;;;9.11;84.23
13934;BME280;7039;52.168;9.866;2023-02-18T04:05:30;100769.56;;;9.12;84.62
13934;BME280;7039;52.168;9.866;2023-02-18T04:07:56;100775.69;;;9.11;84.92
13934;BME280;7039;52.168;9.866;2023-02-18T04:10:24;100771.16;;;9.16;85.33
13934;BME280;7039;52.168;9.866;2023-02-18T04:12:51;100775.63;;;9.13;85.90
13934;BME280;7039;52.168;9.866;2023-02-18T04:15:19;100777.00;;;9.22;86.12
13934;BME280;7039;52.168;9.866;2023-02-18T04:17:46;100763.72;;;9.29;85.93
13934;BME280;7039;52.168;9.866;2023-02-18T04:20:14;100769.66;;;9.53;85.90
13934;BME280;7039;52.168;9.866;2023-02-18T04:25:54;100773.38;;;9.48;86.84
13934;BME280;7039;52.168;9.866;2023-02-18T04:28:43;100764.00;;;9.44;87.29
13934;BME280;7039;52.168;9.866;2023-02-18T04:31:23;100762.00;;;9.50;87.78
13934;BME280;7039;52.168;9.866;2023-02-18T04:34:06;100767.38;;;9.46;88.79
13934;BME280;7039;52.168;9.866;2023-02-18T04:36:48;100769.00;;;9.48;89.32
13934;BME280;7039;52.168;9.866;2023-02-18T04:39:18;100767.25;;;9.49;89.51
13934;BME280;7039;52.168;9.866;2023-02-18T04:45:20;100760.19;;;9.52;90.05
13934;BME280;7039;52.168;9.866;2023-02-18T04:47:53;100752.56;;;9.48;90.09
13934;BME280;7039;52.168;9.866;2023-02-18T04:50:22;100747.94;;;9.54;90.12
13934;BME280;7039;52.168;9.866;2023-02-18T04:53:17;100742.00;;;9.51;90.62
13934;BME280;7039;52.168;9.866;2023-02-18T04:55:49;100741.16;;;9.50;90.16
13934;BME280;7039;52.168;9.866;2023-02-18T04:58:20;100740.44;;;9.67;90.16
13934;BME280;7039;52.168;9.866;2023-02-18T05:00:48;100733.38;;;9.71;90.31
13934;BME280;7039;52.168;9.866;2023-02-18T05:03:14;100732.00;;;9.62;90.50
13934;BME280;7039;52.168;9.866;2023-02-18T05:05:41;100732.72;;;9.66;90.44
13934;BME280;7039;52.168;9.866;2023-02-18T05:08:08;100725.81;;;9.65;90.63
13934;BME280;7039;52.168;9.866;2023-02-18T05:10:34;100726.00;;;9.60;90.98
13934;BME280;7039;52.168;9.866;2023-02-18T05:13:02;100716.81;;;9.72;90.13
13934;BME280;7039;52.168;9.866;2023-02-18T05:15:32;100719.16;;;9.57;90.63
13934;BME280;7039;52.168;9.866;2023-02-18T05:18:01;100712.28;;;9.56;91.04
13934;BME280;7039;52.168;9.866;2023-02-18T05:20:28;100714.50;;;9.66;90.42
13934;BME280;7039;52.168;9.866;2023-02-18T05:22:54;100713.25;;;9.74;90.06
13934;BME280;7039;52.168;9.866;2023-02-18T05:25:21;100702.75;;;9.76;89.97
13934;BME280;7039;52.168;9.866;2023-02-18T05:27:47;100699.88;;;9.82;90.01
13934;BME280;7039;52.168;9.866;2023-02-18T05:30:14;100691.28;;;9.80;90.08
13934;BME280;7039;52.168;9.866;2023-02-18T05:32:40;100690.94;;;9.88;89.94
13934;BME280;7039;52.168;9.866;2023-02-18T05:35:08;100690.94;;;9.88;90.01
13934;BME280;7039;52.168;9.866;2023-02-18T05:37:35;100684.50;;;9.96;89.43
13934;BME280;7039;52.168;9.866;2023-02-18T05:40:02;100689.38;;;10.04;89.34
13934;BME280;7039;52.168;9.866;2023-02-18T05:42:29;100684.16;;;10.04;89.50
13934;BME280;7039;52.168;9.866;2023-02-18T05:44:57;100670.38;;;10.02;90.16
13934;BME280;7039;52.168;9.866;2023-02-18T05:47:23;100675.63;;;10.00;90.68
13934;BME280;7039;52.168;9.866;2023-02-18T05:49:50;100678.88;;;10.06;91.54
13934;BME280;7039;52.168;9.866;2023-02-18T05:52:18;100666.00;;;10.02;91.83
13934;BME280;7039;52.168;9.866;2023-02-18T05:54:46;100659.31;;;9.56;95.37
13934;BME280;7039;52.168;9.866;2023-02-18T05:57:16;100657.78;;;9.72;96.01
13934;BME280;7039;52.168;9.866;2023-02-18T05:59:59;100654.47;;;9.48;97.01
13934;BME280;7039;52.168;9.866;2023-02-18T06:02:25;100652.63;;;9.50;97.86
13934;BME280;7039;52.168;9.866;2023-02-18T06:04:52;100656.28;;;9.46;98.02
13934;BME280;7039;52.168;9.866;2023-02-18T06:07:20;100642.56;;;9.43;99.15
13934;BME280;7039;52.168;9.866;2023-02-18T06:09:47;100645.59;;;9.32;99.62
13934;BME280;7039;52.168;9.866;2023-02-18T06:12:14;100635.78;;;9.38;99.87
13934;BME280;7039;52.168;9.866;2023-02-18T06:14:42;100636.56;;;9.40;99.09
13934;BME280;7039;52.168;9.866;2023-02-18T06:17:10;100634.66;;;9.44;99.51
13934;BME280;7039;52.168;9.866;2023-02-18T06:19:38;100632.00;;;9.46;99.01
13934;BME280;7039;52.168;9.866;2023-02-18T06:22:06;100625.81;;;9.48;98.61
13934;BME280;7039;52.168;9.866;2023-02-18T06:24:41;100630.63;;;9.57;98.87
13934;BME280;7039;52.168;9.866;2023-02-18T06:27:10;100621.50;;;9.68;98.70
13934;BME280;7039;52.168;9.866;2023-02-18T06:29:51;100612.41;;;9.57;98.82
13934;BME280;7039;52.168;9.866;2023-02-18T06:32:42;100609.63;;;9.81;98.21
13934;BME280;7039;52.168;9.866;2023-02-18T06:35:12;100602.81;;;9.97;97.13
13934;BME280;7039;52.168;9.866;2023-02-18T06:37:38;100603.44;;;10.02;96.34
13934;BME280;7039;52.168;9.866;2023-02-18T06:40:07;100599.03;;;10.04;96.34
13934;BME280;7039;52.168;9.866;2023-02-18T06:42:34;100586.63;;;10.10;96.55
13934;BME280;7039;52.168;9.866;2023-02-18T06:45:00;100576.91;;;10.13;96.26
13934;BME280;7039;52.168;9.866;2023-02-18T06:47:27;100571.78;;;9.93;96.85
13934;BME280;7039;52.168;9.866;2023-02-18T06:49:55;100567.41;;;9.93;97.50
13934;BME280;7039;52.168;9.866;2023-02-18T06:52:22;100572.03;;;10.06;96.58
13934;BME280;7039;52.168;9.866;2023-02-18T06:54:49;100573.25;;;10.17;96.82
13934;BME280;7039;52.168;9.866;2023-02-18T06:57:17;100564.34;;;10.21;97.04
13934;BME280;7039;52.168;9.866;2023-02-18T06:59:43;100555.34;;;10.10;96.81
13934;BME280;7039;52.168;9.866;2023-02-18T07:02:11;100548.09;;;9.97;97.61
13934;BME280;7039;52.168;9.866;2023-02-18T07:04:39;100538.53;;;9.98;98.07
13934;BME280;7039;52.168;9.866;2023-02-18T07:07:07;100526.28;;;10.00;98.67
13934;BME280;7039;52.168;9.866;2023-02-18T07:09:37;100527.28;;;10.15;100.00
13934;BME280;7039;52.168;9.866;2023-02-18T07:12:04;100528.50;;;10.08;100.00
13934;BME280;7039;52.168;9.866;2023-02-18T07:14:36;100516.25;;;10.10;100.00
13934;BME280;7039;52.168;9.866;2023-02-18T07:17:03;100520.97;;;10.20;100.00
13934;BME280;7039;52.168;9.866;2023-02-18T07:19:58;100510.91;;;10.32;100.00
13934;BME280;7039;52.168;9.866;2023-02-18T07:22:26;100505.53;;;10.35;100.00
13934;BME280;7039;52.168;9.866;2023-02-18T07:24:59;100496.66;;;10.20;100.00
13934;BME280;7039;52.168;9.866;2023-02-18T07:52:14;100469.13;;;10.68;100.00
13934;BME280;7039;52.168;9.866;2023-02-18T07:55:04;100462.34;;;10.64;100.00
13934;BME280;7039;52.168;9.866;2023-02-18T07:57:42;100466.38;;;10.54;100.00
13934;BME280;7039;52.168;9.866;2023-02-18T08:01:14;100458.22;;;10.60;100.00
13934;BME280;7039;52.168;9.866;2023-02-18T08:10:28;100451.50;;;10.89;100.00
13934;BME280;7039;52.168;9.866;2023-02-18T08:20:29;100454.59;;;10.62;100.00
13934;BME280;7039;52.168;9.866;2023-02-18T08:43:07;100444.81;;;10.68;100.00
13934;BME280;7039;52.168;9.866;2023-02-18T08:46:48;100435.56;;;10.78;100.00
13934;BME280;7039;52.168;9.866;2023-02-18T09:03:20;100417.09;;;10.98;98.54
13934;BME280;7039;52.168;9.866;2023-02-18T09:06:36;100391.69;;;11.02;98.61
13934;BME280;7039;52.168;9.866;2023-02-18T09:15:55;100405.03;;;11.13;98.43
13934;BME280;7039;52.168;9.866;2023-02-18T09:19:04;100405.59;;;11.02;98.99
13934;BME280;7039;52.168;9.866;2023-02-18T09:22:35;100384.72;;;11.18;97.87
13934;BME280;7039;52.168;9.866;2023-02-18T09:39:15;100388.94;;;11.37;97.04
13934;BME280;7039;52.168;9.866;2023-02-18T09:45:29;100388.03;;;11.22;97.15
13934;BME280;7039;52.168;9.866;2023-02-18T09:48:16;100371.25;;;11.10;96.67
13934;BME280;7039;52.168;9.866;2023-02-18T09:51:09;100352.56;;;11.18;96.73
13934;BME280;7039;52.168;9.866;2023-02-18T09:53:48;100386.34;;;11.21;96.43
13934;BME280;7039;52.168;9.866;2023-02-18T09:56:19;100372.84;;;11.44;95.62
13934;BME280;7039;52.168;9.866;2023-02-18T09:58:48;100375.13;;;11.35;95.66
13934;BME280;7039;52.168;9.866;2023-02-18T10:01:28;100368.50;;;11.45;95.70
13934;BME280;7039;52.168;9.866;2023-02-18T10:03:59;100374.09;;;11.21;94.59
13934;BME280;7039;52.168;9.866;2023-02-18T10:06:30;100351.22;;;11.26;94.79
13934;BME280;7039;52.168;9.866;2023-02-18T10:09:00;100368.63;;;11.26;94.42
13934;BME280;7039;52.168;9.866;2023-02-18T10:11:32;100370.41;;;11.41;94.14
13934;BME280;7039;52.168;9.866;2023-02-18T10:14:00;100353.34;;;11.36;94.04
13934;BME280;7039;52.168;9.866;2023-02-18T10:16:28;100360.13;;;11.54;92.99
13934;BME280;7039;52.168;9.866;2023-02-18T10:18:56;100364.28;;;11.42;92.21
13934;BME280;7039;52.168;9.866;2023-02-18T10:21:25;100344.53;;;11.53;92.13
13934;BME280;7039;52.168;9.866;2023-02-18T10:23:56;100350.78;;;11.66;90.51
13934;BME280;7039;52.168;9.866;2023-02-18T10:26:24;100336.50;;;11.71;90.75
13934;BME280;7039;52.168;9.866;2023-02-18T10:28:53;100337.78;;;11.64;89.62
13934;BME280;7039;52.168;9.866;2023-02-18T10:31:25;100360.97;;;11.70;90.02
13934;BME280;7039;52.168;9.866;2023-02-18T10:33:59;100346.78;;;11.75;90.03
13934;BME280;7039;52.168;9.866;2023-02-18T10:36:35;100336.34;;;11.75;90.09
13934;BME280;7039;52.168;9.866;2023-02-18T10:39:17;100335.94;;;11.66;90.61
13934;BME280;7039;52.168;9.866;2023-02-18T10:41:53;100339.31;;;11.53;90.75
13934;BME280;7039;52.168;9.866;2023-02-18T10:44:30;100342.69;;;11.55;90.17
13934;BME280;7039;52.168;9.866;2023-02-18T10:47:08;100324.00;;;11.46;91.04
13934;BME280;7039;52.168;9.866;2023-02-18T10:49:52;100332.06;;;11.42;92.08
13934;BME280;7039;52.168;9.866;2023-02-18T10:52:21;100305.66;;;11.32;92.64
13934;BME280;7039;52.168;9.866;2023-02-18T10:54:51;100326.34;;;11.19;94.62
13934;BME280;7039;52.168;9.866;2023-02-18T10:57:19;100320.81;;;11.10;94.68
13934;BME280;7039;52.168;9.866;2023-02-18T10:59:56;100324.63;;;11.04;95.00
13934;BME280;7039;52.168;9.866;2023-02-18T11:02:25;100324.09;;;11.13;94.32
13934;BME280;7039;52.168;9.866;2023-02-18T11:04:54;100314.19;;;11.20;94.00
13934;BME280;7039;52.168;9.866;2023-02-18T11:07:23;100319.97;;;11.09;92.70
13934;BME280;7039;52.168;9.866;2023-02-18T11:09:52;100305.22;;;11.24;92.80
13934;BME280;7039;52.168;9.866;2023-02-18T11:12:21;100291.44;;;11.38;92.53
13934;BME280;7039;52.168;9.866;2023-02-18T11:15:02;100255.88;;;11.19;91.35
13934;BME280;7039;52.168;9.866;2023-02-18T11:17:32;100307.56;;;11.13;91.31
13934;BME280;7039;52.168;9.866;2023-02-18T11:20:04;100345.75;;;11.15;91.08
13934;BME280;7039;52.168;9.866;2023-02-18T11:22:44;100341.19;;;11.03;91.56
13934;BME280;7039;52.168;9.866;2023-02-18T11:25:18;100323.84;;;11.18;91.82
13934;BME280;7039;52.168;9.866;2023-02-18T11:27:49;100319.72;;;11.14;91.49
13934;BME280;7039;52.168;9.866;2023-02-18T11:30:19;100325.78;;;11.14;92.11
13934;BME280;7039;52.168;9.866;2023-02-18T11:32:50;100321.56;;;11.12;90.61
13934;BME280;7039;52.168;9.866;2023-02-18T11:35:20;100326.22;;;11.22;90.05
13934;BME280;7039;52.168;9.866;2023-02-18T11:37:47;100318.03;;;11.13;89.87
13934;BME280;7039;52.168;9.866;2023-02-18T11:40:21;100329.66;;;11.23;90.21
13934;BME280;7039;52.168;9.866;2023-02-18T11:42:48;100337.41;;;11.08;92.06
13934;BME280;7039;52.168;9.866;2023-02-18T11:45:26;100333.09;;;11.07;93.16
13934;BME280;7039;52.168;9.866;2023-02-18T11:47:59;100345.78;;;10.82;94.60
13934;BME280;7039;52.168;9.866;2023-02-18T11:50:30;100330.56;;;10.74;95.67
13934;BME280;7039;52.168;9.866;2023-02-18T11:52:56;100331.47;;;10.73;96.39
13934;BME280;7039;52.168;9.866;2023-02-18T11:55:25;100411.50;;;10.73;96.83
13934;BME280;7039;52.168;9.866;2023-02-18T11:57:55;100331.28;;;10.76;96.23
13934;BME280;7039;52.168;9.866;2023-02-18T12:00:24;100336.09;;;10.68;97.07
13934;BME280;7039;52.168;9.866;2023-02-18T12:02:58;100333.44;;;10.52;97.54
13934;BME280;7039;52.168;9.866;2023-02-18T12:05:26;100330.19;;;10.64;96.97
13934;BME280;7039;52.168;9.866;2023-02-18T12:07:57;100330.19;;;10.64;97.03
13934;BME280;7039;52.168;9.866;2023-02-18T12:10:27;100335.66;;;10.76;96.77
13934;BME280;7039;52.168;9.866;2023-02-18T12:12:59;100342.97;;;10.69;96.93
13934;BME280;7039;52.168;9.866;2023-02-18T12:15:40;100333.06;;;10.76;96.46
13934;BME280;7039;52.168;9.866;2023-02-18T12:18:26;100334.25;;;10.70;96.82
13934;BME280;7039;52.168;9.866;2023-02-18T12:21:22;100293.34;;;10.71;97.03
13934;BME280;7039;52.168;9.866;2023-02-18T12:24:01;100305.38;;;10.73;97.95
13934;BME280;7039;52.168;9.866;2023-02-18T12:26:44;100328.81;;;10.57;98.38
13934;BME280;7039;52.168;9.866;2023-02-18T12:29:30;100309.28;;;10.49;96.92
13934;BME280;7039;52.168;9.866;2023-02-18T12:32:21;100341.13;;;10.71;97.37
13934;BME280;7039;52.168;9.866;2023-02-18T12:35:02;100335.63;;;10.60;98.68
13934;BME280;7039;52.168;9.866;2023-02-18T12:37:49;100321.47;;;10.48;98.30
13934;BME280;7039;52.168;9.866;2023-02-18T12:40:39;100320.16;;;10.57;99.12
13934;BME280;7039;52.168;9.866;2023-02-18T12:43:16;100335.28;;;10.50;98.53
13934;BME280;7039;52.168;9.866;2023-02-18T12:46:09;100340.25;;;10.55;97.63
13934;BME280;7039;52.168;9.866;2023-02-18T12:48:55;100356.22;;;10.49;97.00
13934;BME280;7039;52.168;9.866;2023-02-18T12:51:37;100357.53;;;10.40;97.93
13934;BME280;7039;52.168;9.866;2023-02-18T12:54:27;100377.31;;;10.44;98.50
13934;BME280;7039;52.168;9.866;2023-02-18T12:57:15;100367.88;;;10.41;98.69
13934;BME280;7039;52.168;9.866;2023-02-18T13:00:16;100302.09;;;10.19;99.95
13934;BME280;7039;52.168;9.866;2023-02-18T13:03:02;100355.50;;;10.28;100.00
13934;BME280;7039;52.168;9.866;2023-02-18T13:05:37;100355.38;;;10.13;100.00
13934;BME280;7039;52.168;9.866;2023-02-18T13:08:21;100347.41;;;10.16;100.00
13934;BME280;7039;52.168;9.866;2023-02-18T13:11:09;100356.16;;;10.33;100.00
13934;BME280;7039;52.168;9.866;2023-02-18T13:13:41;100356.16;;;10.33;100.00
13934;BME280;7039;52.168;9.866;2023-02-18T13:16:14;100333.63;;;10.32;99.82
13934;BME280;7039;52.168;9.866;2023-02-18T13:18:44;100380.16;;;10.39;98.93
13934;BME280;7039;52.168;9.866;2023-02-18T13:21:14;100350.47;;;10.42;98.42
13934;BME280;7039;52.168;9.866;2023-02-18T13:23:47;100362.19;;;10.51;97.49
13934;BME280;7039;52.168;9.866;2023-02-18T13:26:17;100360.91;;;10.42;97.29
13934;BME280;7039;52.168;9.866;2023-02-18T13:28:50;100362.06;;;10.36;97.17
13934;BME280;7039;52.168;9.866;2023-02-18T13:31:33;100356.13;;;10.50;97.00
13934;BME280;7039;52.168;9.866;2023-02-18T13:34:07;100345.78;;;10.49;96.87
13934;BME280;7039;52.168;9.866;2023-02-18T13:36:46;100370.25;;;10.63;96.78
13934;BME280;7039;52.168;9.866;2023-02-18T13:39:19;100348.66;;;10.60;97.03
13934;BME280;7039;52.168;9.866;2023-02-18T13:41:48;100360.22;;;10.72;96.19
13934;BME280;7039;52.168;9.866;2023-02-18T13:47:37;100364.41;;;11.07;94.97
13934;BME280;7039;52.168;9.866;2023-02-18T13:50:21;100349.78;;;11.05;94.52
13934;BME280;7039;52.168;9.866;2023-02-18T13:52:50;100366.50;;;11.01;94.29
13934;BME280;7039;52.168;9.866;2023-02-18T13:55:21;100370.06;;;11.00;94.61
13934;BME280;7039;52.168;9.866;2023-02-18T13:57:48;100374.34;;;11.17;94.73
13934;BME280;7039;52.168;9.866;2023-02-18T14:00:21;100404.09;;;11.14;93.57
13934;BME280;7039;52.168;9.866;2023-02-18T14:02:55;100370.00;;;11.01;94.04
13934;BME280;7039;52.168;9.866;2023-02-18T14:05:23;100391.72;;;11.18;92.50
13934;BME280;7039;52.168;9.866;2023-02-18T14:07:50;100367.41;;;11.17;92.81
13934;BME280;7039;52.168;9.866;2023-02-18T14:10:30;100364.03;;;11.31;92.35
13934;BME280;7039;52.168;9.866;2023-02-18T14:13:20;100390.78;;;11.19;91.76
13934;BME280;7039;52.168;9.866;2023-02-18T14:15:57;100372.63;;;11.17;92.13
13934;BME280;7039;52.168;9.866;2023-02-18T14:18:30;100380.59;;;11.14;92.90
13934;BME280;7039;52.168;9.866;2023-02-18T14:21:17;100378.91;;;10.97;94.45
13934;BME280;7039;52.168;9.866;2023-02-18T14:23:56;100381.25;;;11.02;95.35
13934;BME280;7039;52.168;9.866;2023-02-18T14:26:28;100371.22;;;10.94;95.14
13934;BME280;7039;52.168;9.866;2023-02-18T14:28:56;100384.22;;;10.78;96.14
13934;BME280;7039;52.168;9.866;2023-02-18T14:31:40;100412.06;;;10.95;96.40
13934;BME280;7039;52.168;9.866;2023-02-18T14:34:37;100412.31;;;10.91;96.26
13934;BME280;7039;52.168;9.866;2023-02-18T14:37:24;100398.19;;;10.95;97.17
13934;BME280;7039;52.168;9.866;2023-02-18T14:40:06;100398.56;;;10.87;97.35
13934;BME280;7039;52.168;9.866;2023-02-18T14:42:44;100403.59;;;10.74;98.75
13934;BME280;7039;52.168;9.866;2023-02-18T14:45:21;100411.59;;;10.54;99.53
13934;BME280;7039;52.168;9.866;2023-02-18T14:48:22;100421.47;;;10.64;99.53
13934;BME280;7039;52.168;9.866;2023-02-18T14:50:54;100420.63;;;10.47;100.00
13934;BME280;7039;52.168;9.866;2023-02-18T14:53:25;100426.91;;;10.60;100.00
13934;BME280;7039;52.168;9.866;2023-02-18T14:55:54;100435.75;;;10.40;100.00
13934;BME280;7039;52.168;9.866;2023-02-18T14:58:28;100432.16;;;10.42;100.00
13934;BME280;7039;52.168;9.866;2023-02-18T15:00:57;100440.81;;;10.43;100.00
13934;BME280;7039;52.168;9.866;2023-02-18T15:03:26;100439.34;;;10.55;100.00
13934;BME280;7039;52.168;9.866;2023-02-18T15:05:53;100438.56;;;10.35;100.00
13934;BME280;7039;52.168;9.866;2023-02-18T15:08:22;100441.94;;;10.37;100.00
13934;BME280;7039;52.168;9.866;2023-02-18T15:10:52;100443.13;;;10.32;100.00
13934;BME280;7039;52.168;9.866;2023-02-18T15:13:23;100433.22;;;10.38;100.00
13934;BME280;7039;52.168;9.866;2023-02-18T15:15:54;100440.50;;;10.32;100.00
13934;BME280;7039;52.168;9.866;2023-02-18T15:18:27;100469.50;;;10.43;100.00
13934;BME280;7039;52.168;9.866;2023-02-18T15:20:54;100437.03;;;10.49;98.58
13934;BME280;7039;52.168;9.866;2023-02-18T15:23:21;100412.19;;;10.41;97.38
13934;BME280;7039;52.168;9.866;2023-02-18T15:25:50;100447.34;;;10.52;97.34
13934;BME280;7039;52.168;9.866;2023-02-18T15:28:23;100455.25;;;10.68;96.39
13934;BME280;7039;52.168;9.866;2023-02-18T15:30:50;100464.59;;;10.54;96.80